sensor_id;sensor_type;location;lat;lon;timestamp;P1;durP1;ratioP1;P2;durP2;ratioP2
4202;SDS011;2115;51.038;7.006;2023-04-06T00:00:47;98.97;;;38.57;;
4202;SDS011;2115;51.038;7.006;2023-04-06T00:03:13;81.33;;;30.67;;
4202;SDS011;2115;51.038;7.006;2023-04-06T00:05:39;66.70;;;22.37;;
4202;SDS011;2115;51.038;7.006;2023-04-06T00:08:04;222.70;;;82.20;;
4202;SDS011;2115;51.038;7.006;2023-04-06T00:10:30;81.43;;;36.57;;
4202;SDS011;2115;51.038;7.006;2023-04-06T00:12:55;82.13;;;20.30;;
4202;SDS011;2115;51.038;7.006;2023-04-06T00:15:22;157.53;;;41.57;;
4202;SDS011;2115;51.038;7.006;2023-04-06T00:17:47;121.33;;;34.67;;
4202;SDS011;2115;51.038;7.006;2023-04-06T00:20:13;146.63;;;40.37;;
4202;SDS011;2115;51.038;7.006;2023-04-06T00:22:39;137.50;;;40.23;;
4202;SDS011;2115;51.038;7.006;2023-04-06T00:25:05;128.53;;;40.07;;
4202;SDS011;2115;51.038;7.006;2023-04-06T00:27:30;113.57;;;38.07;;
4202;SDS011;2115;51.038;7.006;2023-04-06T00:29:56;118.07;;;38.73;;
4202;SDS011;2115;51.038;7.006;2023-04-06T00:32:21;115.40;;;39.10;;
4202;SDS011;2115;51.038;7.006;2023-04-06T00:34:46;110.23;;;39.20;;
4202;SDS011;2115;51.038;7.006;2023-04-06T00:37:13;92.40;;;34.87;;
4202;SDS011;2115;51.038;7.006;2023-04-06T00:39:39;88.73;;;33.23;;
4202;SDS011;2115;51.038;7.006;2023-04-06T00:42:09;88.17;;;32.90;;
4202;SDS011;2115;51.038;7.006;2023-04-06T00:44:38;98.43;;;36.43;;
4202;SDS011;2115;51.038;7.006;2023-04-06T00:47:03;104.00;;;38.17;;
4202;SDS011;2115;51.038;7.006;2023-04-06T00:49:29;95.57;;;36.17;;
4202;SDS011;2115;51.038;7.006;2023-04-06T00:51:54;106.80;;;39.27;;
4202;SDS011;2115;51.038;7.006;2023-04-06T00:54:20;99.67;;;37.10;;
4202;SDS011;2115;51.038;7.006;2023-04-06T00:56:45;101.17;;;37.23;;
4202;SDS011;2115;51.038;7.006;2023-04-06T00:59:11;91.70;;;34.73;;
4202;SDS011;2115;51.038;7.006;2023-04-06T01:01:37;93.33;;;35.17;;
4202;SDS011;2115;51.038;7.006;2023-04-06T01:04:02;84.40;;;31.67;;
4202;SDS011;2115;51.038;7.006;2023-04-06T01:06:28;119.17;;;38.73;;
4202;SDS011;2115;51.038;7.006;2023-04-06T01:08:53;98.57;;;36.83;;
4202;SDS011;2115;51.038;7.006;2023-04-06T01:11:19;89.33;;;34.00;;
4202;SDS011;2115;51.038;7.006;2023-04-06T01:13:45;91.53;;;35.03;;
4202;SDS011;2115;51.038;7.006;2023-04-06T01:16:11;92.10;;;34.93;;
4202;SDS011;2115;51.038;7.006;2023-04-06T01:18:37;88.83;;;33.70;;
4202;SDS011;2115;51.038;7.006;2023-04-06T01:21:03;89.50;;;35.43;;
4202;SDS011;2115;51.038;7.006;2023-04-06T01:23:28;98.30;;;37.70;;
4202;SDS011;2115;51.038;7.006;2023-04-06T01:25:54;88.83;;;35.37;;
4202;SDS011;2115;51.038;7.006;2023-04-06T01:28:19;92.40;;;36.00;;
4202;SDS011;2115;51.038;7.006;2023-04-06T01:30:45;84.90;;;34.53;;
4202;SDS011;2115;51.038;7.006;2023-04-06T01:33:10;89.30;;;35.67;;
4202;SDS011;2115;51.038;7.006;2023-04-06T01:35:35;80.83;;;33.83;;
4202;SDS011;2115;51.038;7.006;2023-04-06T01:38:01;92.87;;;36.90;;
4202;SDS011;2115;51.038;7.006;2023-04-06T01:40:27;81.13;;;33.37;;
4202;SDS011;2115;51.038;7.006;2023-04-06T01:42:52;83.90;;;34.43;;
4202;SDS011;2115;51.038;7.006;2023-04-06T01:45:18;85.10;;;34.80;;
4202;SDS011;2115;51.038;7.006;2023-04-06T01:47:43;80.40;;;33.80;;
4202;SDS011;2115;51.038;7.006;2023-04-06T01:50:09;85.00;;;35.00;;
4202;SDS011;2115;51.038;7.006;2023-04-06T01:52:34;85.60;;;34.67;;
4202;SDS011;2115;51.038;7.006;2023-04-06T01:55:00;85.20;;;34.67;;
4202;SDS011;2115;51.038;7.006;2023-04-06T01:57:25;88.07;;;35.40;;
4202;SDS011;2115;51.038;7.006;2023-04-06T01:59:51;84.43;;;34.50;;
4202;SDS011;2115;51.038;7.006;2023-04-06T02:02:16;81.17;;;33.77;;
4202;SDS011;2115;51.038;7.006;2023-04-06T02:04:42;84.93;;;34.47;;
4202;SDS011;2115;51.038;7.006;2023-04-06T02:07:07;88.33;;;35.30;;
4202;SDS011;2115;51.038;7.006;2023-04-06T02:09:33;98.33;;;38.03;;
4202;SDS011;2115;51.038;7.006;2023-04-06T02:11:58;86.90;;;34.27;;
4202;SDS011;2115;51.038;7.006;2023-04-06T02:14:24;85.80;;;34.67;;
4202;SDS011;2115;51.038;7.006;2023-04-06T02:16:50;82.93;;;33.83;;
4202;SDS011;2115;51.038;7.006;2023-04-06T02:19:16;86.37;;;35.10;;
4202;SDS011;2115;51.038;7.006;2023-04-06T02:21:41;85.23;;;34.60;;
4202;SDS011;2115;51.038;7.006;2023-04-06T02:24:07;85.20;;;34.63;;
4202;SDS011;2115;51.038;7.006;2023-04-06T02:26:32;83.70;;;34.40;;
4202;SDS011;2115;51.038;7.006;2023-04-06T02:28:58;73.90;;;31.77;;
4202;SDS011;2115;51.038;7.006;2023-04-06T02:31:23;86.47;;;35.43;;
4202;SDS011;2115;51.038;7.006;2023-04-06T02:33:48;77.20;;;32.63;;
4202;SDS011;2115;51.038;7.006;2023-04-06T02:36:14;82.93;;;34.33;;
4202;SDS011;2115;51.038;7.006;2023-04-06T02:38:39;88.83;;;35.67;;
4202;SDS011;2115;51.038;7.006;2023-04-06T02:41:05;80.53;;;33.27;;
4202;SDS011;2115;51.038;7.006;2023-04-06T02:43:30;95.47;;;37.30;;
4202;SDS011;2115;51.038;7.006;2023-04-06T02:45:56;91.27;;;36.20;;
4202;SDS011;2115;51.038;7.006;2023-04-06T02:48:21;82.83;;;33.70;;
4202;SDS011;2115;51.038;7.006;2023-04-06T02:50:46;83.70;;;34.10;;
4202;SDS011;2115;51.038;7.006;2023-04-06T02:53:12;90.23;;;35.70;;
4202;SDS011;2115;51.038;7.006;2023-04-06T02:55:37;80.03;;;32.83;;
4202;SDS011;2115;51.038;7.006;2023-04-06T02:58:03;82.20;;;33.60;;
4202;SDS011;2115;51.038;7.006;2023-04-06T03:00:28;86.27;;;34.67;;
4202;SDS011;2115;51.038;7.006;2023-04-06T03:02:53;79.17;;;32.73;;
4202;SDS011;2115;51.038;7.006;2023-04-06T03:05:19;81.60;;;33.53;;
4202;SDS011;2115;51.038;7.006;2023-04-06T03:07:45;80.00;;;33.27;;
4202;SDS011;2115;51.038;7.006;2023-04-06T03:10:10;73.90;;;31.30;;
4202;SDS011;2115;51.038;7.006;2023-04-06T03:12:36;79.80;;;33.23;;
4202;SDS011;2115;51.038;7.006;2023-04-06T03:15:01;78.03;;;32.33;;
4202;SDS011;2115;51.038;7.006;2023-04-06T03:17:27;82.23;;;33.40;;
4202;SDS011;2115;51.038;7.006;2023-04-06T03:19:52;76.27;;;32.00;;
4202;SDS011;2115;51.038;7.006;2023-04-06T03:22:17;69.30;;;30.60;;
4202;SDS011;2115;51.038;7.006;2023-04-06T03:24:44;66.63;;;30.07;;
4202;SDS011;2115;51.038;7.006;2023-04-06T03:27:09;68.33;;;30.43;;
4202;SDS011;2115;51.038;7.006;2023-04-06T03:29:35;71.63;;;31.47;;
4202;SDS011;2115;51.038;7.006;2023-04-06T03:32:00;50.23;;;27.73;;
4202;SDS011;2115;51.038;7.006;2023-04-06T03:34:26;46.43;;;27.63;;
4202;SDS011;2115;51.038;7.006;2023-04-06T03:36:51;51.97;;;28.80;;
4202;SDS011;2115;51.038;7.006;2023-04-06T03:39:16;56.37;;;29.73;;
4202;SDS011;2115;51.038;7.006;2023-04-06T03:41:42;66.53;;;30.63;;
4202;SDS011;2115;51.038;7.006;2023-04-06T03:44:09;49.30;;;27.73;;
4202;SDS011;2115;51.038;7.006;2023-04-06T03:46:34;46.20;;;26.80;;
4202;SDS011;2115;51.038;7.006;2023-04-06T03:49:01;53.43;;;28.17;;
4202;SDS011;2115;51.038;7.006;2023-04-06T03:51:27;54.10;;;30.10;;
4202;SDS011;2115;51.038;7.006;2023-04-06T03:53:52;50.43;;;27.90;;
4202;SDS011;2115;51.038;7.006;2023-04-06T03:56:18;68.33;;;32.17;;
4202;SDS011;2115;51.038;7.006;2023-04-06T03:58:43;55.60;;;28.50;;
4202;SDS011;2115;51.038;7.006;2023-04-06T04:01:10;57.07;;;30.03;;
4202;SDS011;2115;51.038;7.006;2023-04-06T04:03:35;51.20;;;28.30;;
4202;SDS011;2115;51.038;7.006;2023-04-06T04:06:01;52.53;;;28.70;;
4202;SDS011;2115;51.038;7.006;2023-04-06T04:08:26;52.27;;;28.57;;
4202;SDS011;2115;51.038;7.006;2023-04-06T04:10:52;61.60;;;29.83;;
4202;SDS011;2115;51.038;7.006;2023-04-06T04:13:17;55.83;;;29.60;;
4202;SDS011;2115;51.038;7.006;2023-04-06T04:15:43;55.37;;;29.40;;
4202;SDS011;2115;51.038;7.006;2023-04-06T04:18:09;48.97;;;27.73;;
4202;SDS011;2115;51.038;7.006;2023-04-06T04:20:34;50.73;;;28.50;;
4202;SDS011;2115;51.038;7.006;2023-04-06T04:23:00;46.20;;;26.70;;
4202;SDS011;2115;51.038;7.006;2023-04-06T04:25:25;49.63;;;28.33;;
4202;SDS011;2115;51.038;7.006;2023-04-06T04:27:51;47.27;;;27.33;;
4202;SDS011;2115;51.038;7.006;2023-04-06T04:30:16;50.20;;;27.73;;
4202;SDS011;2115;51.038;7.006;2023-04-06T04:32:42;50.80;;;27.63;;
4202;SDS011;2115;51.038;7.006;2023-04-06T04:35:07;52.53;;;28.50;;
4202;SDS011;2115;51.038;7.006;2023-04-06T04:37:33;54.53;;;29.10;;
4202;SDS011;2115;51.038;7.006;2023-04-06T04:40:00;50.57;;;27.87;;
4202;SDS011;2115;51.038;7.006;2023-04-06T04:42:25;49.40;;;27.53;;
4202;SDS011;2115;51.038;7.006;2023-04-06T04:44:51;50.83;;;27.90;;
4202;SDS011;2115;51.038;7.006;2023-04-06T04:47:16;51.13;;;28.37;;
4202;SDS011;2115;51.038;7.006;2023-04-06T04:49:45;53.63;;;28.70;;
4202;SDS011;2115;51.038;7.006;2023-04-06T04:52:10;54.10;;;29.20;;
4202;SDS011;2115;51.038;7.006;2023-04-06T04:54:36;52.50;;;28.33;;
4202;SDS011;2115;51.038;7.006;2023-04-06T04:57:01;47.80;;;27.40;;
4202;SDS011;2115;51.038;7.006;2023-04-06T04:59:26;48.33;;;27.43;;
4202;SDS011;2115;51.038;7.006;2023-04-06T05:01:54;51.37;;;28.20;;
4202;SDS011;2115;51.038;7.006;2023-04-06T05:04:19;48.03;;;27.60;;
4202;SDS011;2115;51.038;7.006;2023-04-06T05:06:45;54.53;;;29.67;;
4202;SDS011;2115;51.038;7.006;2023-04-06T05:09:11;49.10;;;27.90;;
4202;SDS011;2115;51.038;7.006;2023-04-06T05:11:36;47.50;;;27.20;;
4202;SDS011;2115;51.038;7.006;2023-04-06T05:14:02;47.57;;;27.20;;
4202;SDS011;2115;51.038;7.006;2023-04-06T05:16:27;47.80;;;27.57;;
4202;SDS011;2115;51.038;7.006;2023-04-06T05:18:52;48.17;;;27.50;;
4202;SDS011;2115;51.038;7.006;2023-04-06T05:21:18;53.73;;;29.53;;
4202;SDS011;2115;51.038;7.006;2023-04-06T05:23:44;55.43;;;29.93;;
4202;SDS011;2115;51.038;7.006;2023-04-06T05:26:09;51.53;;;28.60;;
4202;SDS011;2115;51.038;7.006;2023-04-06T05:28:35;49.80;;;28.00;;
4202;SDS011;2115;51.038;7.006;2023-04-06T05:31:01;51.60;;;28.33;;
4202;SDS011;2115;51.038;7.006;2023-04-06T05:33:26;75.23;;;32.57;;
4202;SDS011;2115;51.038;7.006;2023-04-06T05:35:52;49.07;;;27.50;;
4202;SDS011;2115;51.038;7.006;2023-04-06T05:38:17;55.03;;;29.60;;
4202;SDS011;2115;51.038;7.006;2023-04-06T05:40:43;50.20;;;27.90;;
4202;SDS011;2115;51.038;7.006;2023-04-06T05:43:08;43.20;;;26.13;;
4202;SDS011;2115;51.038;7.006;2023-04-06T05:45:34;49.80;;;28.63;;
4202;SDS011;2115;51.038;7.006;2023-04-06T05:48:00;45.07;;;26.50;;
4202;SDS011;2115;51.038;7.006;2023-04-06T05:50:27;45.37;;;26.73;;
4202;SDS011;2115;51.038;7.006;2023-04-06T05:52:52;64.80;;;32.10;;
4202;SDS011;2115;51.038;7.006;2023-04-06T05:55:17;52.33;;;28.33;;
4202;SDS011;2115;51.038;7.006;2023-04-06T05:57:43;48.60;;;27.40;;
4202;SDS011;2115;51.038;7.006;2023-04-06T06:00:08;46.90;;;27.00;;
4202;SDS011;2115;51.038;7.006;2023-04-06T06:02:35;48.70;;;28.00;;
4202;SDS011;2115;51.038;7.006;2023-04-06T06:05:00;46.30;;;26.97;;
4202;SDS011;2115;51.038;7.006;2023-04-06T06:07:26;42.60;;;26.50;;
4202;SDS011;2115;51.038;7.006;2023-04-06T06:09:51;37.13;;;25.00;;
4202;SDS011;2115;51.038;7.006;2023-04-06T06:12:17;42.03;;;27.20;;
4202;SDS011;2115;51.038;7.006;2023-04-06T06:14:42;42.90;;;26.30;;
4202;SDS011;2115;51.038;7.006;2023-04-06T06:17:08;37.10;;;25.37;;
4202;SDS011;2115;51.038;7.006;2023-04-06T06:19:33;36.10;;;25.03;;
4202;SDS011;2115;51.038;7.006;2023-04-06T06:21:59;33.90;;;24.50;;
4202;SDS011;2115;51.038;7.006;2023-04-06T06:24:27;30.00;;;23.30;;
4202;SDS011;2115;51.038;7.006;2023-04-06T06:26:52;28.33;;;21.50;;
4202;SDS011;2115;51.038;7.006;2023-04-06T06:29:18;28.50;;;22.67;;
4202;SDS011;2115;51.038;7.006;2023-04-06T06:31:43;29.90;;;23.37;;
4202;SDS011;2115;51.038;7.006;2023-04-06T06:34:08;30.73;;;23.70;;
4202;SDS011;2115;51.038;7.006;2023-04-06T06:36:35;29.40;;;23.20;;
4202;SDS011;2115;51.038;7.006;2023-04-06T06:39:00;31.10;;;23.80;;
4202;SDS011;2115;51.038;7.006;2023-04-06T06:41:28;29.93;;;23.27;;
4202;SDS011;2115;51.038;7.006;2023-04-06T06:43:53;26.10;;;20.97;;
4202;SDS011;2115;51.038;7.006;2023-04-06T06:46:19;27.10;;;22.97;;
4202;SDS011;2115;51.038;7.006;2023-04-06T06:48:45;41.23;;;28.33;;
4202;SDS011;2115;51.038;7.006;2023-04-06T06:51:11;34.43;;;22.03;;
4202;SDS011;2115;51.038;7.006;2023-04-06T06:53:36;1.63;;;1.53;;
4202;SDS011;2115;51.038;7.006;2023-04-06T06:56:02;4.83;;;2.67;;
4202;SDS011;2115;51.038;7.006;2023-04-06T06:58:27;4.90;;;2.70;;
4202;SDS011;2115;51.038;7.006;2023-04-06T07:00:59;4.07;;;3.77;;
4202;SDS011;2115;51.038;7.006;2023-04-06T07:03:25;10.07;;;4.87;;
4202;SDS011;2115;51.038;7.006;2023-04-06T07:05:50;1.37;;;1.23;;
4202;SDS011;2115;51.038;7.006;2023-04-06T07:08:19;5.33;;;3.03;;
4202;SDS011;2115;51.038;7.006;2023-04-06T07:10:45;1.53;;;1.40;;
4202;SDS011;2115;51.038;7.006;2023-04-06T07:13:11;72.20;;;31.40;;
4202;SDS011;2115;51.038;7.006;2023-04-06T07:15:37;84.03;;;35.50;;
4202;SDS011;2115;51.038;7.006;2023-04-06T07:18:02;80.37;;;34.20;;
4202;SDS011;2115;51.038;7.006;2023-04-06T07:20:28;76.73;;;33.83;;
4202;SDS011;2115;51.038;7.006;2023-04-06T07:22:53;74.00;;;34.77;;
4202;SDS011;2115;51.038;7.006;2023-04-06T07:25:19;67.60;;;32.30;;
4202;SDS011;2115;51.038;7.006;2023-04-06T07:27:44;66.77;;;32.77;;
4202;SDS011;2115;51.038;7.006;2023-04-06T07:30:10;73.20;;;33.53;;
4202;SDS011;2115;51.038;7.006;2023-04-06T07:32:36;83.07;;;35.33;;
4202;SDS011;2115;51.038;7.006;2023-04-06T07:35:01;88.63;;;37.60;;
4202;SDS011;2115;51.038;7.006;2023-04-06T07:37:27;73.53;;;34.47;;
4202;SDS011;2115;51.038;7.006;2023-04-06T07:39:52;50.83;;;29.50;;
4202;SDS011;2115;51.038;7.006;2023-04-06T07:42:18;67.77;;;36.10;;
4202;SDS011;2115;51.038;7.006;2023-04-06T07:44:43;32.70;;;25.03;;
4202;SDS011;2115;51.038;7.006;2023-04-06T07:47:08;72.17;;;33.87;;
4202;SDS011;2115;51.038;7.006;2023-04-06T07:49:34;81.13;;;35.87;;
4202;SDS011;2115;51.038;7.006;2023-04-06T07:51:59;88.00;;;37.67;;
4202;SDS011;2115;51.038;7.006;2023-04-06T07:54:27;79.60;;;35.70;;
4202;SDS011;2115;51.038;7.006;2023-04-06T07:56:53;75.70;;;35.73;;
4202;SDS011;2115;51.038;7.006;2023-04-06T07:59:18;77.63;;;36.10;;
4202;SDS011;2115;51.038;7.006;2023-04-06T08:01:44;77.73;;;35.93;;
4202;SDS011;2115;51.038;7.006;2023-04-06T08:04:09;73.27;;;35.20;;
4202;SDS011;2115;51.038;7.006;2023-04-06T08:06:34;77.20;;;36.20;;
4202;SDS011;2115;51.038;7.006;2023-04-06T08:09:01;74.90;;;35.40;;
4202;SDS011;2115;51.038;7.006;2023-04-06T08:11:27;70.87;;;34.77;;
4202;SDS011;2115;51.038;7.006;2023-04-06T08:13:52;75.10;;;36.03;;
4202;SDS011;2115;51.038;7.006;2023-04-06T08:16:18;72.37;;;34.90;;
4202;SDS011;2115;51.038;7.006;2023-04-06T08:18:44;75.00;;;35.93;;
4202;SDS011;2115;51.038;7.006;2023-04-06T08:21:09;71.13;;;34.87;;
4202;SDS011;2115;51.038;7.006;2023-04-06T08:23:35;75.20;;;35.70;;
4202;SDS011;2115;51.038;7.006;2023-04-06T08:26:00;76.80;;;36.30;;
4202;SDS011;2115;51.038;7.006;2023-04-06T08:28:25;72.90;;;34.60;;
4202;SDS011;2115;51.038;7.006;2023-04-06T08:30:51;72.40;;;34.60;;
4202;SDS011;2115;51.038;7.006;2023-04-06T08:33:16;70.03;;;34.37;;
4202;SDS011;2115;51.038;7.006;2023-04-06T08:35:42;70.20;;;34.60;;
4202;SDS011;2115;51.038;7.006;2023-04-06T08:38:07;77.00;;;31.57;;
4202;SDS011;2115;51.038;7.006;2023-04-06T08:40:39;12.27;;;6.60;;
4202;SDS011;2115;51.038;7.006;2023-04-06T08:43:06;10.87;;;7.40;;
4202;SDS011;2115;51.038;7.006;2023-04-06T08:45:33;10.80;;;6.70;;
4202;SDS011;2115;51.038;7.006;2023-04-06T08:47:59;12.57;;;6.53;;
4202;SDS011;2115;51.038;7.006;2023-04-06T08:50:26;14.77;;;7.50;;
4202;SDS011;2115;51.038;7.006;2023-04-06T08:52:53;21.70;;;8.13;;
4202;SDS011;2115;51.038;7.006;2023-04-06T08:55:19;69.73;;;37.93;;
4202;SDS011;2115;51.038;7.006;2023-04-06T08:57:44;71.70;;;35.13;;
4202;SDS011;2115;51.038;7.006;2023-04-06T09:00:11;79.83;;;37.80;;
4202;SDS011;2115;51.038;7.006;2023-04-06T09:02:38;74.90;;;36.10;;
4202;SDS011;2115;51.038;7.006;2023-04-06T09:05:05;70.07;;;35.10;;
4202;SDS011;2115;51.038;7.006;2023-04-06T09:07:32;71.57;;;35.70;;
4202;SDS011;2115;51.038;7.006;2023-04-06T09:09:58;72.77;;;35.43;;
4202;SDS011;2115;51.038;7.006;2023-04-06T09:12:24;80.37;;;38.13;;
4202;SDS011;2115;51.038;7.006;2023-04-06T09:14:53;82.47;;;36.70;;
4202;SDS011;2115;51.038;7.006;2023-04-06T09:17:19;84.73;;;37.50;;
4202;SDS011;2115;51.038;7.006;2023-04-06T09:19:46;93.70;;;40.00;;
4202;SDS011;2115;51.038;7.006;2023-04-06T09:22:12;86.30;;;37.67;;
4202;SDS011;2115;51.038;7.006;2023-04-06T09:24:47;100.23;;;39.43;;
4202;SDS011;2115;51.038;7.006;2023-04-06T09:27:15;77.00;;;37.17;;
4202;SDS011;2115;51.038;7.006;2023-04-06T09:29:41;76.50;;;36.47;;
4202;SDS011;2115;51.038;7.006;2023-04-06T09:32:08;73.17;;;35.73;;
4202;SDS011;2115;51.038;7.006;2023-04-06T09:34:37;85.37;;;38.70;;
4202;SDS011;2115;51.038;7.006;2023-04-06T09:37:15;78.03;;;36.97;;
4202;SDS011;2115;51.038;7.006;2023-04-06T09:39:42;75.67;;;35.97;;
4202;SDS011;2115;51.038;7.006;2023-04-06T09:42:08;73.33;;;35.13;;
4202;SDS011;2115;51.038;7.006;2023-04-06T09:44:33;94.63;;;42.00;;
4202;SDS011;2115;51.038;7.006;2023-04-06T09:46:59;72.73;;;35.57;;
4202;SDS011;2115;51.038;7.006;2023-04-06T09:49:29;77.67;;;36.50;;
4202;SDS011;2115;51.038;7.006;2023-04-06T09:51:56;87.13;;;39.83;;
4202;SDS011;2115;51.038;7.006;2023-04-06T09:54:23;93.43;;;41.70;;
4202;SDS011;2115;51.038;7.006;2023-04-06T09:56:58;84.10;;;39.23;;
4202;SDS011;2115;51.038;7.006;2023-04-06T10:05:33;68.90;;;34.90;;
4202;SDS011;2115;51.038;7.006;2023-04-06T10:07:59;76.47;;;36.87;;
4202;SDS011;2115;51.038;7.006;2023-04-06T10:10:28;75.00;;;36.37;;
4202;SDS011;2115;51.038;7.006;2023-04-06T10:12:54;70.00;;;35.00;;
4202;SDS011;2115;51.038;7.006;2023-04-06T10:15:21;70.73;;;35.00;;
4202;SDS011;2115;51.038;7.006;2023-04-06T10:17:46;70.80;;;35.00;;
4202;SDS011;2115;51.038;7.006;2023-04-06T10:20:15;76.63;;;36.30;;
4202;SDS011;2115;51.038;7.006;2023-04-06T10:23:04;72.93;;;35.40;;
4202;SDS011;2115;51.038;7.006;2023-04-06T10:25:34;83.20;;;37.50;;
4202;SDS011;2115;51.038;7.006;2023-04-06T10:28:00;118.17;;;43.13;;
4202;SDS011;2115;51.038;7.006;2023-04-06T10:30:27;132.53;;;46.43;;
4202;SDS011;2115;51.038;7.006;2023-04-06T10:32:54;124.80;;;42.40;;
4202;SDS011;2115;51.038;7.006;2023-04-06T10:35:20;127.67;;;42.87;;
4202;SDS011;2115;51.038;7.006;2023-04-06T10:37:46;109.67;;;37.30;;
4202;SDS011;2115;51.038;7.006;2023-04-06T10:42:48;110.77;;;37.40;;
4202;SDS011;2115;51.038;7.006;2023-04-06T10:45:20;114.40;;;38.37;;
4202;SDS011;2115;51.038;7.006;2023-04-06T10:47:47;111.90;;;38.07;;
4202;SDS011;2115;51.038;7.006;2023-04-06T10:50:16;34.60;;;11.47;;
4202;SDS011;2115;51.038;7.006;2023-04-06T10:52:43;22.83;;;11.20;;
4202;SDS011;2115;51.038;7.006;2023-04-06T10:55:10;18.87;;;10.50;;
4202;SDS011;2115;51.038;7.006;2023-04-06T10:57:37;54.63;;;24.77;;
4202;SDS011;2115;51.038;7.006;2023-04-06T11:00:05;111.80;;;41.07;;
4202;SDS011;2115;51.038;7.006;2023-04-06T11:02:32;575.33;;;362.50;;
4202;SDS011;2115;51.038;7.006;2023-04-06T11:04:58;734.77;;;384.83;;
4202;SDS011;2115;51.038;7.006;2023-04-06T11:07:24;729.53;;;373.53;;
4202;SDS011;2115;51.038;7.006;2023-04-06T11:09:51;745.27;;;388.30;;
4202;SDS011;2115;51.038;7.006;2023-04-06T11:12:23;731.90;;;360.30;;
4202;SDS011;2115;51.038;7.006;2023-04-06T11:14:56;739.87;;;377.87;;
4202;SDS011;2115;51.038;7.006;2023-04-06T11:17:29;747.47;;;421.80;;
4202;SDS011;2115;51.038;7.006;2023-04-06T11:19:55;745.37;;;363.43;;
4202;SDS011;2115;51.038;7.006;2023-04-06T11:22:21;744.33;;;387.83;;
4202;SDS011;2115;51.038;7.006;2023-04-06T11:24:46;752.57;;;406.53;;
4202;SDS011;2115;51.038;7.006;2023-04-06T11:27:12;764.13;;;445.40;;
4202;SDS011;2115;51.038;7.006;2023-04-06T11:29:40;776.33;;;432.73;;
4202;SDS011;2115;51.038;7.006;2023-04-06T11:32:06;760.17;;;427.20;;
4202;SDS011;2115;51.038;7.006;2023-04-06T11:34:33;764.93;;;449.33;;
4202;SDS011;2115;51.038;7.006;2023-04-06T11:37:07;753.90;;;403.80;;
4202;SDS011;2115;51.038;7.006;2023-04-06T11:39:49;755.13;;;403.83;;
4202;SDS011;2115;51.038;7.006;2023-04-06T11:42:25;765.73;;;429.70;;
4202;SDS011;2115;51.038;7.006;2023-04-06T11:44:55;751.27;;;404.10;;
4202;SDS011;2115;51.038;7.006;2023-04-06T11:47:37;748.80;;;411.77;;
4202;SDS011;2115;51.038;7.006;2023-04-06T11:50:10;758.00;;;396.73;;
4202;SDS011;2115;51.038;7.006;2023-04-06T11:52:39;752.10;;;403.17;;
4202;SDS011;2115;51.038;7.006;2023-04-06T11:57:38;750.40;;;394.23;;
4202;SDS011;2115;51.038;7.006;2023-04-06T12:00:04;755.37;;;393.20;;
4202;SDS011;2115;51.038;7.006;2023-04-06T12:02:30;749.33;;;397.87;;
4202;SDS011;2115;51.038;7.006;2023-04-06T12:04:57;751.60;;;411.70;;
4202;SDS011;2115;51.038;7.006;2023-04-06T12:07:22;745.20;;;389.93;;
4202;SDS011;2115;51.038;7.006;2023-04-06T12:09:48;751.70;;;384.40;;
4202;SDS011;2115;51.038;7.006;2023-04-06T12:12:13;754.37;;;393.00;;
4202;SDS011;2115;51.038;7.006;2023-04-06T12:14:38;740.60;;;377.17;;
4202;SDS011;2115;51.038;7.006;2023-04-06T12:17:04;717.20;;;347.70;;
4202;SDS011;2115;51.038;7.006;2023-04-06T12:19:29;708.53;;;330.17;;
4202;SDS011;2115;51.038;7.006;2023-04-06T12:21:56;711.63;;;339.97;;
4202;SDS011;2115;51.038;7.006;2023-04-06T12:24:22;719.07;;;357.33;;
4202;SDS011;2115;51.038;7.006;2023-04-06T12:26:48;712.10;;;361.77;;
4202;SDS011;2115;51.038;7.006;2023-04-06T12:29:13;713.17;;;359.77;;
4202;SDS011;2115;51.038;7.006;2023-04-06T12:31:39;717.40;;;366.57;;
4202;SDS011;2115;51.038;7.006;2023-04-06T12:34:06;723.33;;;392.43;;
4202;SDS011;2115;51.038;7.006;2023-04-06T12:36:32;719.53;;;380.00;;
4202;SDS011;2115;51.038;7.006;2023-04-06T12:38:58;719.93;;;349.27;;
4202;SDS011;2115;51.038;7.006;2023-04-06T12:41:23;733.30;;;384.50;;
4202;SDS011;2115;51.038;7.006;2023-04-06T12:43:49;715.13;;;357.93;;
4202;SDS011;2115;51.038;7.006;2023-04-06T12:46:17;720.90;;;379.77;;
4202;SDS011;2115;51.038;7.006;2023-04-06T12:48:42;714.37;;;337.70;;
4202;SDS011;2115;51.038;7.006;2023-04-06T12:51:08;712.67;;;347.70;;
4202;SDS011;2115;51.038;7.006;2023-04-06T12:53:33;720.03;;;339.77;;
4202;SDS011;2115;51.038;7.006;2023-04-06T12:56:00;711.57;;;367.60;;
4202;SDS011;2115;51.038;7.006;2023-04-06T12:58:27;730.80;;;381.10;;
4202;SDS011;2115;51.038;7.006;2023-04-06T13:00:57;730.67;;;403.67;;
4202;SDS011;2115;51.038;7.006;2023-04-06T13:03:22;721.20;;;352.60;;
4202;SDS011;2115;51.038;7.006;2023-04-06T13:05:51;710.53;;;357.87;;
4202;SDS011;2115;51.038;7.006;2023-04-06T13:08:18;727.67;;;348.10;;
4202;SDS011;2115;51.038;7.006;2023-04-06T13:10:48;715.93;;;331.83;;
4202;SDS011;2115;51.038;7.006;2023-04-06T13:13:15;715.77;;;345.57;;
4202;SDS011;2115;51.038;7.006;2023-04-06T13:15:41;736.40;;;361.27;;
4202;SDS011;2115;51.038;7.006;2023-04-06T13:18:07;725.93;;;330.83;;
4202;SDS011;2115;51.038;7.006;2023-04-06T13:20:33;698.87;;;300.13;;
4202;SDS011;2115;51.038;7.006;2023-04-06T13:22:59;701.37;;;328.93;;
4202;SDS011;2115;51.038;7.006;2023-04-06T13:25:24;704.57;;;316.80;;
4202;SDS011;2115;51.038;7.006;2023-04-06T13:27:50;716.13;;;303.83;;
4202;SDS011;2115;51.038;7.006;2023-04-06T13:30:15;709.63;;;338.63;;
4202;SDS011;2115;51.038;7.006;2023-04-06T13:32:41;694.57;;;305.23;;
4202;SDS011;2115;51.038;7.006;2023-04-06T13:35:07;700.50;;;310.43;;
4202;SDS011;2115;51.038;7.006;2023-04-06T13:37:33;712.93;;;355.77;;
4202;SDS011;2115;51.038;7.006;2023-04-06T13:39:58;689.97;;;306.83;;
4202;SDS011;2115;51.038;7.006;2023-04-06T13:42:24;718.90;;;393.47;;
4202;SDS011;2115;51.038;7.006;2023-04-06T13:44:49;703.27;;;343.77;;
4202;SDS011;2115;51.038;7.006;2023-04-06T13:47:16;697.87;;;324.07;;
4202;SDS011;2115;51.038;7.006;2023-04-06T13:49:41;689.70;;;294.20;;
4202;SDS011;2115;51.038;7.006;2023-04-06T13:52:07;683.27;;;271.90;;
4202;SDS011;2115;51.038;7.006;2023-04-06T13:54:32;712.53;;;302.50;;
4202;SDS011;2115;51.038;7.006;2023-04-06T13:56:58;678.53;;;254.90;;
4202;SDS011;2115;51.038;7.006;2023-04-06T13:59:23;745.97;;;423.53;;
4202;SDS011;2115;51.038;7.006;2023-04-06T14:01:48;692.57;;;311.33;;
4202;SDS011;2115;51.038;7.006;2023-04-06T14:04:14;713.10;;;373.97;;
4202;SDS011;2115;51.038;7.006;2023-04-06T14:06:39;260.33;;;168.00;;
4202;SDS011;2115;51.038;7.006;2023-04-06T14:09:05;717.67;;;369.40;;
4202;SDS011;2115;51.038;7.006;2023-04-06T14:11:30;14.80;;;7.60;;
4202;SDS011;2115;51.038;7.006;2023-04-06T14:13:56;24.43;;;8.90;;
4202;SDS011;2115;51.038;7.006;2023-04-06T14:16:23;94.80;;;46.63;;
4202;SDS011;2115;51.038;7.006;2023-04-06T14:18:48;13.37;;;7.37;;
4202;SDS011;2115;51.038;7.006;2023-04-06T14:21:13;15.63;;;7.90;;
4202;SDS011;2115;51.038;7.006;2023-04-06T14:23:39;11.70;;;6.10;;
4202;SDS011;2115;51.038;7.006;2023-04-06T14:26:05;13.53;;;6.30;;
4202;SDS011;2115;51.038;7.006;2023-04-06T14:28:32;10.50;;;5.23;;
4202;SDS011;2115;51.038;7.006;2023-04-06T14:30:59;14.17;;;5.70;;
4202;SDS011;2115;51.038;7.006;2023-04-06T14:33:25;11.70;;;6.70;;
4202;SDS011;2115;51.038;7.006;2023-04-06T14:35:51;17.13;;;6.57;;
4202;SDS011;2115;51.038;7.006;2023-04-06T14:38:17;17.40;;;6.80;;
4202;SDS011;2115;51.038;7.006;2023-04-06T14:40:42;12.37;;;7.20;;
4202;SDS011;2115;51.038;7.006;2023-04-06T14:43:07;9.93;;;6.20;;
4202;SDS011;2115;51.038;7.006;2023-04-06T14:45:33;9.77;;;5.40;;
4202;SDS011;2115;51.038;7.006;2023-04-06T14:48:00;10.97;;;5.63;;